Time;durP1;ratioP1;P1;durP2;ratioP2;P2;SDS_P1;SDS_P2;PMS_P1;PMS_P2;Temp;Humidity;BMP_temperature;BMP_pressure;BME280_temperature;BME280_humidity;BME280_pressure;Samples;Min_cycle;Max_cycle;Signal;HPM_P1;HPM_P2
2021/12/04 00:00:46;;;;;;;25.10;13.02;;;;;;;-1.72;85.22;100358.88;5092325;28;20039;-69
2021/12/04 00:03:12;;;;;;;26.17;13.05;;;;;;;-1.84;85.58;100335.66;5092021;28;20028;-69
2021/12/04 00:05:40;;;;;;;27.10;13.70;;;;;;;-1.76;86.07;100353.78;5092202;28;20109;-69
2021/12/04 00:08:06;;;;;;;26.40;13.82;;;;;;;-1.84;85.59;100342.72;5091737;28;20102;-67
2021/12/04 00:10:32;;;;;;;23.55;12.45;;;;;;;-1.78;85.85;100355.63;5091749;28;20102;-68
2021/12/04 00:12:57;;;;;;;26.55;12.98;;;;;;;-1.91;85.17;100341.22;5091660;28;20088;-65
2021/12/04 00:15:23;;;;;;;26.17;14.35;;;;;;;-1.86;85.09;100355.03;5091379;28;20535;-66
2021/12/04 00:17:48;;;;;;;28.90;14.80;;;;;;;-1.88;84.89;100364.72;5091464;28;20047;-67
2021/12/04 00:20:14;;;;;;;25.98;13.30;;;;;;;-1.85;85.62;100365.50;5072957;28;20028;-66
2021/12/04 00:22:40;;;;;;;30.23;16.13;;;;;;;-1.91;86.28;100351.75;5091506;28;20043;-67
2021/12/04 00:25:07;;;;;;;30.20;13.95;;;;;;;-1.93;86.02;100356.19;5091297;28;20031;-66
2021/12/04 00:27:32;;;;;;;30.17;15.60;;;;;;;-1.93;86.62;100356.19;5091497;28;20035;-67
2021/12/04 00:29:58;;;;;;;27.40;13.93;;;;;;;-1.85;87.31;100368.13;5091246;28;20104;-66
2021/12/04 00:32:32;;;;;;;38.10;16.58;;;;;;;-1.85;88.21;100359.38;5091073;28;20555;-66
2021/12/04 00:35:44;;;;;;;28.35;15.18;;;;;;;-1.80;88.58;100363.56;5091182;28;20402;-67
2021/12/04 00:49:12;;;;;;;31.83;15.10;;;;;;;-1.85;86.02;100349.72;5089051;28;19922;-68
2021/12/04 00:52:04;;;;;;;27.55;14.75;;;;;;;-1.90;86.57;100341.16;5090842;28;20115;-67
2021/12/04 00:54:29;;;;;;;30.95;14.55;;;;;;;-1.89;86.70;100342.00;5084134;28;20044;-65
2021/12/04 00:56:56;;;;;;;38.42;16.27;;;;;;;-1.86;86.97;100341.88;5090865;28;20128;-65
2021/12/04 00:59:21;;;;;;;31.70;16.05;;;;;;;-1.78;86.83;100356.47;5090601;28;20032;-66
2021/12/04 01:01:47;;;;;;;33.47;17.70;;;;;;;-1.80;87.42;100346.94;5090444;28;20028;-65
2021/12/04 01:04:16;;;;;;;34.80;15.57;;;;;;;-1.86;87.91;100339.25;5090279;28;20484;-65
2021/12/04 01:06:43;;;;;;;31.13;16.75;;;;;;;-1.81;87.46;100339.97;5090552;28;20073;-66
2021/12/04 01:09:11;;;;;;;32.20;15.98;;;;;;;-1.84;87.32;100335.66;5090480;28;20039;-66
2021/12/04 01:11:39;;;;;;;27.92;15.85;;;;;;;-1.83;87.76;100332.13;5072796;28;20023;-69
2021/12/04 01:14:05;;;;;;;32.35;15.18;;;;;;;-1.79;88.56;100338.13;5090791;28;20055;-70
2021/12/04 01:16:31;;;;;;;31.08;16.17;;;;;;;-1.77;88.85;100336.31;5090891;28;20452;-69
2021/12/04 01:18:56;;;;;;;27.25;14.77;;;;;;;-1.82;88.98;100332.97;5072773;28;20052;-68
2021/12/04 01:21:22;;;;;;;29.95;14.75;;;;;;;-1.80;88.93;100331.16;5090802;28;20050;-70
2021/12/04 01:23:47;;;;;;;36.10;16.02;;;;;;;-1.85;89.15;100312.06;5090875;28;20039;-69
2021/12/04 01:26:13;;;;;;;27.65;14.43;;;;;;;-1.79;88.83;100322.34;5072645;28;20046;-69
2021/12/04 01:28:39;;;;;;;34.45;16.58;;;;;;;-1.78;88.77;100326.72;5090458;28;20143;-70
2021/12/04 01:31:04;;;;;;;31.98;17.10;;;;;;;-1.84;88.92;100316.44;5089799;28;20451;-68
2021/12/04 01:33:30;;;;;;;38.83;18.20;;;;;;;-1.79;88.68;100319.72;5072508;28;20024;-69
2021/12/04 01:35:55;;;;;;;34.17;17.98;;;;;;;-1.75;88.65;100323.94;5090769;28;20081;-69
2021/12/04 01:38:21;;;;;;;36.40;18.85;;;;;;;-1.79;88.35;100317.09;5090563;28;20024;-70
2021/12/04 01:40:47;;;;;;;41.45;18.30;;;;;;;-1.87;88.60;100303.41;5090365;28;20105;-69
2021/12/04 01:43:12;;;;;;;38.35;19.13;;;;;;;-1.77;88.42;100305.63;5090378;28;20023;-68
2021/12/04 01:45:38;;;;;;;41.47;19.58;;;;;;;-1.79;88.00;100298.69;5072096;28;20024;-68
2021/12/04 01:48:04;;;;;;;41.92;20.85;;;;;;;-1.85;88.34;100291.03;5072551;28;20380;-70
2021/12/04 01:50:31;;;;;;;39.55;19.67;;;;;;;-1.81;89.10;100292.66;5089543;28;20036;-69
2021/12/04 01:52:59;;;;;;;45.65;19.45;;;;;;;-1.78;89.32;100292.53;5090436;28;20024;-68
2021/12/04 01:55:31;;;;;;;40.95;20.40;;;;;;;-1.78;89.28;100288.13;5072225;28;20472;-70
2021/12/04 01:57:57;;;;;;;40.00;19.65;;;;;;;-1.85;89.38;100277.91;5090330;28;20040;-69
2021/12/04 02:00:23;;;;;;;43.00;20.95;;;;;;;-1.78;88.71;100284.66;5090272;28;20035;-69
2021/12/04 02:02:49;;;;;;;38.08;19.30;;;;;;;-1.79;88.31;100286.41;5090729;28;20026;-69
2021/12/04 02:05:15;;;;;;;37.50;18.45;;;;;;;-1.81;87.49;100287.41;5090204;28;20111;-69
2021/12/04 02:07:40;;;;;;;39.20;19.10;;;;;;;-1.82;87.46;100283.03;5072140;28;20115;-68
2021/12/04 02:10:06;;;;;;;36.38;18.90;;;;;;;-1.85;87.33;100276.13;5090425;28;20449;-69
2021/12/04 02:12:32;;;;;;;36.22;19.00;;;;;;;-1.86;87.06;100279.69;5090295;28;20028;-69
2021/12/04 02:14:58;;;;;;;36.80;18.10;;;;;;;-1.87;87.76;100269.25;5090166;28;20035;-69
2021/12/04 02:17:24;;;;;;;37.60;19.38;;;;;;;-1.90;88.47;100264.97;5093643;28;20074;-69
2021/12/04 02:19:49;;;;;;;34.20;17.13;;;;;;;-1.95;88.53;100263.41;5075984;28;20040;-68
2021/12/04 02:22:15;;;;;;;35.47;17.90;;;;;;;-2.00;87.35;100265.38;5091498;28;20043;-69
2021/12/04 02:24:41;;;;;;;32.80;16.88;;;;;;;-1.99;86.70;100282.84;5075475;28;20110;-69
2021/12/04 02:27:06;;;;;;;36.90;17.67;;;;;;;-2.02;87.08;100273.31;5094319;28;20459;-69
2021/12/04 02:29:32;;;;;;;35.90;18.60;;;;;;;-2.02;87.87;100280.31;5093613;28;20048;-69
2021/12/04 02:31:59;;;;;;;30.30;15.32;;;;;;;-2.07;88.66;100269.13;5093822;28;20031;-69
2021/12/04 02:34:27;;;;;;;35.42;17.17;;;;;;;-2.05;89.26;100278.66;5093653;28;20023;-70
2021/12/04 02:36:54;;;;;;;33.03;17.20;;;;;;;-2.09;89.57;100265.69;5075728;28;20439;-69
2021/12/04 02:39:26;;;;;;;36.42;18.35;;;;;;;-2.11;89.28;100259.63;5093455;28;20085;-68
2021/12/04 02:41:52;;;;;;;34.83;17.00;;;;;;;-2.14;89.11;100254.50;5093688;28;20036;-69
2021/12/04 02:44:18;;;;;;;30.55;14.75;;;;;;;-2.19;88.77;100248.56;5093349;28;20349;-68
2021/12/04 02:46:43;;;;;;;34.55;17.15;;;;;;;-2.21;87.13;100256.50;5093551;28;20093;-69
2021/12/04 02:49:12;;;;;;;33.10;15.65;;;;;;;-2.21;87.78;100255.66;5075470;28;20031;-70
2021/12/04 02:51:37;;;;;;;32.08;15.23;;;;;;;-2.24;88.16;100267.13;5093451;28;20031;-70
2021/12/04 02:54:05;;;;;;;31.58;15.15;;;;;;;-2.25;88.14;100273.31;5093208;28;21257;-69
2021/12/04 02:56:31;;;;;;;31.48;14.43;;;;;;;-2.28;88.09;100264.66;5093268;28;20023;-69
2021/12/04 02:59:01;;;;;;;28.52;15.10;;;;;;;-2.32;88.09;100259.53;5093323;28;20026;-69
2021/12/04 03:01:27;;;;;;;25.52;14.23;;;;;;;-2.30;88.07;100279.66;5093471;28;20039;-69
2021/12/04 03:04:03;;;;;;;27.38;13.70;;;;;;;-2.40;87.69;100269.47;5093107;28;20024;-69
2021/12/04 03:06:29;;;;;;;28.98;14.10;;;;;;;-2.40;87.55;100276.47;5090745;28;20111;-68
2021/12/04 03:08:54;;;;;;;31.63;14.93;;;;;;;-2.45;87.18;100270.56;5074688;28;20128;-69
2021/12/04 03:11:20;;;;;;;36.08;17.92;;;;;;;-2.49;87.14;100272.41;5093025;28;20032;-69
2021/12/04 03:13:45;;;;;;;35.20;16.70;;;;;;;-2.56;87.53;100268.31;5095848;28;20032;-69
2021/12/04 03:16:11;;;;;;;33.55;16.40;;;;;;;-2.64;87.81;100251.97;5095343;28;20069;-68
2021/12/04 03:18:36;;;;;;;36.58;17.25;;;;;;;-2.59;87.13;100276.28;5096994;28;20215;-69
2021/12/04 03:21:04;;;;;;;35.30;17.20;;;;;;;-2.64;86.46;100266.88;5098790;28;20032;-67
2021/12/04 03:23:33;;;;;;;40.83;18.98;;;;;;;-2.69;85.69;100261.78;5095510;28;20023;-68
2021/12/04 03:26:00;;;;;;;41.33;18.83;;;;;;;-2.64;84.90;100278.19;5094330;28;20472;-69
2021/12/04 03:28:27;;;;;;;34.63;18.25;;;;;;;-2.78;84.90;100261.22;5093356;28;20123;-68
2021/12/04 03:31:06;;;;;;;38.40;19.77;;;;;;;-2.74;85.35;100262.84;5098172;28;20042;-68
2021/12/04 03:41:24;;;;;;;;;;;;;;;-2.83;86.88;100261.38;5098167;28;20076;-68
2021/12/04 03:43:50;;;;;;;41.53;18.52;;;;;;;-2.86;87.90;100256.28;5094321;28;19912;-68
2021/12/04 03:46:16;;;;;;;37.88;19.52;;;;;;;-2.85;88.29;100251.84;5099329;28;20658;-68
2021/12/04 03:51:07;;;;;;;55.05;24.63;;;;;;;-2.86;88.64;100258.03;5099465;28;20047;-68
2021/12/04 03:53:33;;;;;;;49.03;23.63;;;;;;;-2.86;88.45;100250.16;5094585;28;20024;-68
2021/12/04 03:55:59;;;;;;;43.55;22.77;;;;;;;-2.85;89.10;100247.47;5096194;28;20568;-69
2021/12/04 03:58:25;;;;;;;49.13;23.25;;;;;;;-2.84;89.05;100238.69;5098703;28;20412;-68
2021/12/04 04:00:50;;;;;;;48.83;23.75;;;;;;;-2.79;89.51;100263.00;5094851;28;20040;-68
2021/12/04 04:03:16;;;;;;;46.20;22.98;;;;;;;-2.87;88.96;100237.97;5094463;28;20042;-68
2021/12/04 04:05:42;;;;;;;50.08;22.27;;;;;;;-2.84;88.81;100241.31;5094268;28;20089;-69
2021/12/04 04:08:11;;;;;;;48.60;22.95;;;;;;;-2.86;87.66;100227.41;5097433;28;20031;-65
2021/12/04 04:10:37;;;;;;;50.15;21.23;;;;;;;-2.86;87.17;100222.16;5096365;28;20054;-64
2021/12/04 04:13:02;;;;;;;46.75;23.20;;;;;;;-2.83;87.49;100232.53;5073261;28;20064;-65
2021/12/04 04:15:28;;;;;;;43.30;21.23;;;;;;;-2.88;87.58;100210.84;5091545;28;20020;-66
2021/12/04 04:17:53;;;;;;;48.10;23.85;;;;;;;-2.83;87.96;100208.91;5073400;28;20048;-66
2021/12/04 04:20:21;;;;;;;43.75;23.58;;;;;;;-2.89;88.16;100192.53;5091199;28;20027;-66
2021/12/04 04:22:48;;;;;;;48.22;23.08;;;;;;;-2.88;87.22;100189.88;5091566;28;20132;-67
2021/12/04 04:25:16;;;;;;;46.97;22.83;;;;;;;-2.90;88.06;100188.22;5091467;28;20447;-65
2021/12/04 04:27:42;;;;;;;52.13;22.80;;;;;;;-2.89;88.13;100182.06;5091676;28;20073;-67
2021/12/04 04:30:12;;;;;;;43.30;21.65;;;;;;;-2.91;87.60;100179.47;5073096;28;20372;-66
2021/12/04 04:32:38;;;;;;;39.72;20.63;;;;;;;-2.91;86.85;100174.22;5090982;28;20035;-66
2021/12/04 04:35:11;;;;;;;43.97;21.63;;;;;;;-3.02;86.17;100141.44;5088780;28;20110;-67
2021/12/04 04:37:55;;;;;;;49.40;22.55;;;;;;;-2.90;86.97;100161.97;5091156;28;20019;-66
2021/12/04 05:16:11;;;;;;;50.10;20.90;;;;;;;-3.23;86.96;100173.63;5092626;28;20081;-66
2021/12/04 05:20:38;;;;;;;47.00;22.50;;;;;;;-3.32;86.53;100164.31;5087891;28;20040;-67
2021/12/04 05:23:07;;;;;;;42.47;21.98;;;;;;;-3.30;85.93;100174.75;5090390;28;20031;-66
2021/12/04 05:25:33;;;;;;;43.53;21.98;;;;;;;-3.34;86.48;100168.78;5090314;28;20541;-66
2021/12/04 05:27:58;;;;;;;44.97;22.58;;;;;;;-3.35;86.45;100163.59;5090079;28;20055;-66
2021/12/04 05:30:24;;;;;;;41.33;22.90;;;;;;;-3.36;86.76;100167.09;5090855;28;20051;-67
2021/12/04 05:32:50;;;;;;;50.63;23.30;;;;;;;-3.44;85.92;100151.66;5078463;28;20036;-66
2021/12/04 05:35:15;;;;;;;50.38;23.67;;;;;;;-3.48;85.10;100159.69;5092378;28;20031;-66
2021/12/04 05:37:41;;;;;;;44.38;23.60;;;;;;;-3.45;84.82;100167.44;5096511;28;20035;-66
2021/12/04 05:40:10;;;;;;;47.03;23.20;;;;;;;-3.45;83.70;100167.44;5096169;28;20031;-66
2021/12/04 05:42:36;;;;;;;47.50;23.75;;;;;;;-3.47;84.17;100162.25;5094180;28;20051;-67
2021/12/04 05:45:02;;;;;;;43.00;21.83;;;;;;;-3.48;85.25;100171.00;5075517;28;20499;-65
2021/12/04 05:47:35;;;;;;;49.75;23.70;;;;;;;-3.47;85.12;100177.09;5092345;28;20027;-67
2021/12/04 05:50:17;;;;;;;48.80;22.92;;;;;;;-3.52;85.79;100179.88;5077012;28;20032;-66
2021/12/04 05:55:27;;;;;;;49.58;23.77;;;;;;;-3.54;86.97;100165.97;5098449;28;20035;-66
2021/12/04 05:57:52;;;;;;;58.22;25.77;;;;;;;-3.48;88.13;100171.00;5075882;28;20085;-66
2021/12/04 06:00:22;;;;;;;53.25;26.67;;;;;;;-3.49;88.11;100169.28;5094133;28;20055;-66
2021/12/04 06:02:47;;;;;;;49.72;26.35;;;;;;;-3.53;87.67;100166.81;5087360;28;20044;-67
2021/12/04 06:05:13;;;;;;;51.72;27.00;;;;;;;-3.52;87.95;100168.56;5092489;28;20020;-67
2021/12/04 06:07:39;;;;;;;55.47;28.00;;;;;;;-3.48;88.00;100173.63;5074269;28;20032;-66
2021/12/04 06:10:06;;;;;;;61.05;28.98;;;;;;;-3.51;87.80;100172.88;5074096;28;20516;-66
2021/12/04 06:12:32;;;;;;;51.13;25.67;;;;;;;-3.55;86.57;100166.88;5091696;28;20127;-66
2021/12/04 06:14:58;;;;;;;55.22;26.83;;;;;;;-3.53;86.34;100174.69;5073949;28;20099;-68
2021/12/04 06:17:25;;;;;;;57.28;27.60;;;;;;;-3.58;87.06;100158.28;5072339;28;20028;-67
2021/12/04 06:22:43;;;;;;;57.63;30.98;;;;;;;-3.49;88.45;100176.28;5067776;28;20059;-66
2021/12/04 06:25:15;;;;;;;93.30;45.97;;;;;;;-3.50;87.88;100172.81;5072156;28;20635;-66
2021/12/04 06:27:41;;;;;;;95.30;44.90;;;;;;;-3.45;87.74;100168.28;5088032;28;20395;-66
2021/12/04 06:30:11;;;;;;;96.38;48.80;;;;;;;-3.45;87.67;100162.19;5090429;28;20127;-67
2021/12/04 06:32:37;;;;;;;88.78;44.00;;;;;;;-3.41;88.29;100177.78;5090271;28;20048;-66
2021/12/04 06:35:07;;;;;;;89.57;43.03;;;;;;;-3.36;88.80;100181.06;5090317;28;20024;-66
2021/12/04 06:37:33;;;;;;;81.40;42.10;;;;;;;-3.37;88.50;100173.25;5072039;28;20566;-67
2021/12/04 06:39:59;;;;;;;89.72;42.55;;;;;;;-3.33;88.55;100180.97;5090347;28;20016;-66
2021/12/04 06:42:24;;;;;;;97.00;45.13;;;;;;;-3.29;89.32;100189.59;5071627;28;20085;-66
2021/12/04 06:44:53;;;;;;;89.50;42.40;;;;;;;-3.32;88.89;100182.69;5091367;28;20039;-66
2021/12/04 06:47:18;;;;;;;109.60;47.47;;;;;;;-3.26;89.02;100187.72;5092196;28;20370;-65
2021/12/04 06:49:46;;;;;;;141.73;60.78;;;;;;;-3.24;89.87;100179.78;5095048;28;20044;-66
2021/12/04 06:52:17;;;;;;;155.52;64.63;;;;;;;-3.18;90.70;100176.97;5093353;28;20031;-65
2021/12/04 06:54:52;;;;;;;157.07;64.20;;;;;;;-3.19;91.30;100177.88;5090204;28;20032;-67
2021/12/04 06:57:18;;;;;;;157.73;65.07;;;;;;;-3.15;90.70;100175.13;5093045;28;20542;-66
2021/12/04 06:59:45;;;;;;;173.13;66.10;;;;;;;-3.06;91.17;100181.78;5090049;28;20052;-66
2021/12/04 07:02:11;;;;;;;169.77;66.82;;;;;;;-3.02;90.59;100179.00;5071243;28;20035;-67
2021/12/04 07:04:37;;;;;;;162.02;61.70;;;;;;;-2.97;90.08;100177.06;5089712;28;20056;-66
2021/12/04 07:07:05;;;;;;;156.43;57.70;;;;;;;-2.96;90.12;100175.31;5090767;28;20084;-67
2021/12/04 07:09:31;;;;;;;175.63;64.55;;;;;;;-2.89;90.40;100167.19;5090513;28;20057;-66
2021/12/04 07:11:58;;;;;;;150.38;59.38;;;;;;;-2.80;91.29;100174.69;5089726;28;20024;-66
2021/12/04 07:14:23;;;;;;;140.80;55.92;;;;;;;-2.79;91.48;100171.19;5090242;28;20173;-67
2021/12/04 07:16:49;;;;;;;127.13;51.60;;;;;;;-2.75;91.80;100164.91;5090144;28;20110;-66
2021/12/04 07:19:14;;;;;;;112.22;46.83;;;;;;;-2.69;91.77;100164.69;5090323;28;20028;-66
2021/12/04 07:21:40;;;;;;;116.10;48.85;;;;;;;-2.61;91.96;100173.09;5071591;28;20032;-65
2021/12/04 07:24:06;;;;;;;102.93;44.55;;;;;;;-2.56;92.97;100168.56;5071053;28;20076;-65
2021/12/04 07:26:31;;;;;;;106.22;44.92;;;;;;;-2.50;93.71;100160.47;5089321;28;20448;-66
2021/12/04 07:28:57;;;;;;;101.72;43.78;;;;;;;-2.42;94.14;100171.50;5089953;28;20056;-66
2021/12/04 07:31:22;;;;;;;107.10;45.08;;;;;;;-2.40;94.29;100174.06;5089547;28;20046;-66
2021/12/04 07:33:50;;;;;;;94.88;43.63;;;;;;;-2.33;94.48;100164.22;5089875;28;20035;-66
2021/12/04 07:36:16;;;;;;;113.32;48.22;;;;;;;-2.29;94.37;100153.50;5071319;28;20040;-67
2021/12/04 07:38:41;;;;;;;103.60;46.30;;;;;;;-2.18;94.97;100166.22;5071767;28;20020;-66
2021/12/04 07:41:08;;;;;;;110.13;47.22;;;;;;;-2.08;94.95;100162.34;5088749;28;20035;-67
2021/12/04 07:43:34;;;;;;;113.55;48.05;;;;;;;-2.04;95.28;100153.44;5089834;28;20030;-66
2021/12/04 07:45:59;;;;;;;106.72;47.42;;;;;;;-2.01;95.79;100148.03;5088535;28;20044;-64
2021/12/04 07:48:26;;;;;;;108.10;47.55;;;;;;;-1.95;95.98;100132.03;5071607;28;20492;-65
2021/12/04 07:50:52;;;;;;;120.10;48.47;;;;;;;-1.84;96.38;100129.84;5068868;28;20025;-66
2021/12/04 07:53:18;;;;;;;89.05;42.08;;;;;;;-1.75;96.77;100132.94;5089699;28;20851;-66
2021/12/04 07:55:43;;;;;;;88.40;40.97;;;;;;;-1.62;96.66;100138.56;5089737;28;20049;-65
2021/12/04 07:58:09;;;;;;;72.40;35.40;;;;;;;-1.55;97.09;100140.84;5088727;28;20032;-66
2021/12/04 08:00:34;;;;;;;56.13;28.42;;;;;;;-1.48;97.01;100123.06;5089865;28;20051;-67
2021/12/04 08:03:01;;;;;;;54.97;26.83;;;;;;;-1.38;97.01;100130.50;5070621;28;20147;-66
2021/12/04 08:05:29;;;;;;;47.63;23.58;;;;;;;-1.32;96.56;100129.38;5071084;28;20051;-66
2021/12/04 08:07:56;;;;;;;44.80;22.08;;;;;;;-1.13;96.10;100141.66;5088685;28;20514;-66
2021/12/04 08:10:22;;;;;;;44.38;21.77;;;;;;;-1.10;95.79;100125.75;5088324;28;20026;-66
2021/12/04 08:12:48;;;;;;;45.72;23.05;;;;;;;-0.93;95.54;100133.75;5088754;28;20036;-65
2021/12/04 08:15:17;;;;;;;43.38;21.80;;;;;;;-0.95;95.01;100111.91;5089015;28;20024;-66
2021/12/04 08:17:43;;;;;;;39.25;20.95;;;;;;;-0.76;94.38;100125.97;5089382;28;20054;-65
2021/12/04 08:20:11;;;;;;;41.80;21.52;;;;;;;-0.64;93.87;100116.66;5070735;28;20119;-65
2021/12/04 08:22:37;;;;;;;44.60;21.88;;;;;;;-0.56;93.51;100114.50;5071327;28;20031;-66
2021/12/04 08:25:03;;;;;;;40.70;22.95;;;;;;;-0.53;93.13;100102.06;5089505;28;20507;-65
2021/12/04 08:27:29;;;;;;;44.15;24.13;;;;;;;-0.35;92.32;100111.72;5089948;28;20055;-65
2021/12/04 08:29:55;;;;;;;48.60;25.30;;;;;;;-0.31;91.82;100105.41;5071342;28;20121;-64
2021/12/04 08:32:24;;;;;;;39.28;23.45;;;;;;;-0.21;91.54;100111.09;5070307;28;20468;-65
2021/12/04 08:34:53;;;;;;;47.15;23.58;;;;;;;-0.14;91.25;100101.97;5089858;28;20032;-65
2021/12/04 08:37:19;;;;;;;44.80;23.15;;;;;;;-0.03;90.44;100100.50;5090034;28;20495;-64
2021/12/04 08:39:44;;;;;;;44.95;24.58;;;;;;;0.09;90.31;100101.69;5089586;28;20130;-65
2021/12/04 08:42:11;;;;;;;39.63;22.17;;;;;;;0.17;90.09;100106.59;5089706;28;20043;-65
2021/12/04 08:44:38;;;;;;;37.25;21.50;;;;;;;0.22;89.85;100101.97;5071299;28;20090;-65
2021/12/04 08:47:04;;;;;;;39.05;21.60;;;;;;;0.32;89.72;100101.41;5089700;28;20057;-66
2021/12/04 08:49:31;;;;;;;39.83;20.85;;;;;;;0.45;89.67;100109.59;5070813;28;20036;-65
2021/12/04 08:51:58;;;;;;;35.25;20.27;;;;;;;0.50;89.32;100092.59;5068253;28;20045;-64
2021/12/04 08:54:23;;;;;;;35.63;20.25;;;;;;;0.64;88.87;100103.28;5088350;28;20506;-65
2021/12/04 08:56:49;;;;;;;31.17;18.48;;;;;;;0.72;88.54;100106.41;5070387;28;20028;-65
2021/12/04 08:59:14;;;;;;;35.53;18.65;;;;;;;0.78;87.66;100095.53;5087809;28;20068;-64
2021/12/04 09:01:43;;;;;;;37.10;18.58;;;;;;;0.86;86.87;100085.44;5089525;28;20016;-64
2021/12/04 09:04:23;;;;;;;30.23;18.65;;;;;;;0.94;86.32;100082.38;5070693;28;20059;-66
2021/12/04 09:06:50;;;;;;;38.53;18.75;;;;;;;1.01;85.77;100079.34;5071222;28;20032;-64
2021/12/04 09:09:16;;;;;;;32.70;17.80;;;;;;;1.09;85.90;100076.28;5069297;28;20036;-64
2021/12/04 09:11:46;;;;;;;32.80;18.15;;;;;;;1.13;85.62;100064.66;5084785;28;20024;-65
2021/12/04 09:14:15;;;;;;;30.20;19.27;;;;;;;1.19;85.47;100062.50;5089836;28;20023;-66
2021/12/04 09:16:41;;;;;;;33.83;18.40;;;;;;;1.27;85.01;100062.97;5089913;28;20051;-64
2021/12/04 09:19:07;;;;;;;34.53;18.20;;;;;;;1.33;84.40;100060.00;5089828;28;20451;-67
2021/12/04 09:21:35;;;;;;;33.25;19.42;;;;;;;1.38;83.74;100059.72;5089882;28;20034;-65
2021/12/04 09:24:04;;;;;;;33.30;17.27;;;;;;;1.45;83.48;100058.47;5089843;28;20117;-69
2021/12/04 09:26:41;;;;;;;29.98;17.40;;;;;;;1.50;83.50;100052.00;5089439;28;20477;-68
2021/12/04 10:15:47;;;;;;;29.77;16.15;;;;;;;2.60;75.91;99994.41;5089912;28;20028;-64
2021/12/04 10:34:33;;;;;;;25.90;14.02;;;;;;;3.04;73.12;99934.25;5089532;28;20057;-66
2021/12/04 10:37:14;;;;;;;26.35;15.57;;;;;;;3.09;73.10;99946.25;5089118;28;20460;-64
2021/12/04 10:39:40;;;;;;;28.40;15.38;;;;;;;3.16;73.17;99946.72;5092493;28;20020;-65
2021/12/04 10:42:15;;;;;;;22.48;14.02;;;;;;;3.22;72.67;99949.00;5092882;28;20032;-65
2021/12/04 10:44:48;;;;;;;24.63;13.77;;;;;;;3.30;72.41;99944.03;5093226;28;20524;-65
2021/12/04 10:47:17;;;;;;;20.33;12.85;;;;;;;3.36;71.43;99936.56;5091181;28;20472;-65
2021/12/04 10:55:20;;;;;;;19.98;11.35;;;;;;;3.58;69.58;99910.34;5093307;28;20032;-66
2021/12/04 10:58:22;;;;;;;20.67;12.13;;;;;;;3.64;69.02;99891.38;5092006;28;20036;-66
2021/12/04 11:40:00;;;;;;;18.00;9.70;;;;;;;4.07;64.68;99841.59;5092466;28;20028;-66
2021/12/04 11:42:36;;;;;;;14.65;8.88;;;;;;;4.12;64.57;99842.97;5074136;28;20027;-66
2021/12/04 11:45:15;;;;;;;16.08;9.05;;;;;;;4.09;63.99;99834.34;5092572;28;20166;-70
2021/12/04 11:47:45;;;;;;;14.88;9.13;;;;;;;4.16;64.35;99831.19;5090667;28;20024;-69
2021/12/04 11:50:25;;;;;;;18.75;10.05;;;;;;;4.18;64.86;99823.13;5089946;28;20027;-69
2021/12/04 11:52:54;;;;;;;21.58;10.05;;;;;;;4.18;64.61;99813.34;5073552;28;20664;-70
2021/12/04 11:55:21;;;;;;;20.02;11.50;;;;;;;4.20;65.05;99807.94;5092496;28;20042;-69
2021/12/04 11:57:48;;;;;;;19.20;12.05;;;;;;;4.21;65.28;99793.72;5092779;28;20050;-69
2021/12/04 12:00:30;;;;;;;19.15;11.63;;;;;;;4.24;65.49;99804.13;5092618;28;20395;-70
2021/12/04 12:03:12;;;;;;;21.27;12.05;;;;;;;4.24;65.64;99802.31;5091122;28;20019;-69
2021/12/04 12:05:51;;;;;;;29.80;13.35;;;;;;;4.28;65.52;99806.44;5089985;28;20077;-70
2021/12/04 12:08:42;;;;;;;21.80;11.93;;;;;;;4.27;65.54;99802.09;5091884;28;20027;-69
2021/12/04 12:11:27;;;;;;;24.10;12.00;;;;;;;4.25;65.82;99792.53;5091979;28;20032;-71
2021/12/04 12:14:14;;;;;;;17.27;10.93;;;;;;;4.26;66.04;99797.72;5092444;28;20112;-71
2021/12/04 12:16:47;;;;;;;19.13;11.45;;;;;;;4.29;66.53;99802.81;5092288;28;20082;-70
2021/12/04 12:19:29;;;;;;;24.30;11.77;;;;;;;4.27;67.09;99796.78;5090158;28;20089;-70
2021/12/04 12:22:22;;;;;;;16.00;10.35;;;;;;;4.24;67.12;99791.69;5092025;28;20050;-70
2021/12/04 12:38:28;;;;;;;16.65;9.95;;;;;;;4.21;66.86;99786.59;5087911;28;20077;-69
2021/12/04 12:41:05;;;;;;;17.95;10.55;;;;;;;4.24;67.49;99785.53;5091408;28;20043;-70
2021/12/04 12:43:51;;;;;;;18.13;11.18;;;;;;;4.24;68.04;99785.53;5091211;28;20041;-70
2021/12/04 12:46:17;;;;;;;21.55;12.68;;;;;;;4.23;68.52;99784.66;5090792;28;20028;-70
2021/12/04 12:48:54;;;;;;;23.08;13.07;;;;;;;4.16;68.71;99774.63;5091163;28;20422;-70
2021/12/04 12:51:34;;;;;;;21.88;12.70;;;;;;;4.25;69.45;99779.25;5070552;28;20016;-70
2021/12/04 12:54:04;;;;;;;22.50;13.02;;;;;;;4.21;69.31;99765.38;5089835;28;20362;-69
2021/12/04 12:56:33;;;;;;;20.30;11.20;;;;;;;4.28;68.68;99771.09;5090803;28;20027;-71
2021/12/04 12:59:12;;;;;;;21.17;12.35;;;;;;;4.31;68.39;99771.72;5072967;28;20039;-69
2021/12/04 13:13:44;;;;;;;21.95;12.77;;;;;;;4.31;69.75;99770.88;5081617;28;20127;-71
2021/12/04 13:16:23;;;;;;;22.83;13.20;;;;;;;4.34;69.26;99775.97;5090216;28;20036;-71
2021/12/04 13:18:56;;;;;;;20.40;12.13;;;;;;;4.29;69.29;99754.22;5070985;28;20071;-70
2021/12/04 13:21:22;;;;;;;23.17;12.70;;;;;;;4.27;69.51;99737.56;5089671;28;20063;-70
2021/12/04 13:23:53;;;;;;;24.00;13.60;;;;;;;4.35;69.53;99745.78;5091201;28;20071;-70
2021/12/04 13:26:24;;;;;;;24.55;12.60;;;;;;;4.35;69.76;99745.78;5088819;28;20127;-69
2021/12/04 13:28:51;;;;;;;20.88;12.85;;;;;;;4.39;69.46;99755.25;5089067;28;20055;-69
2021/12/04 13:31:18;;;;;;;22.05;12.32;;;;;;;4.35;69.06;99745.78;5072814;28;20020;-69
2021/12/04 13:33:52;;;;;;;20.90;12.00;;;;;;;4.38;69.28;99751.75;5090957;28;20052;-71
2021/12/04 13:36:29;;;;;;;23.15;12.98;;;;;;;4.36;69.07;99756.31;5090933;28;20020;-70
2021/12/04 13:39:00;;;;;;;23.17;11.25;;;;;;;4.35;69.66;99757.28;5089234;28;20028;-70
2021/12/04 13:41:28;;;;;;;21.95;12.00;;;;;;;4.35;69.98;99753.75;5089294;28;20035;-70
2021/12/04 13:43:56;;;;;;;21.60;12.40;;;;;;;4.34;70.08;99752.94;5088129;28;20032;-66
2021/12/04 13:46:22;;;;;;;20.98;12.00;;;;;;;4.30;70.25;99739.97;5071898;28;20031;-67
2021/12/04 13:48:47;;;;;;;25.70;12.75;;;;;;;4.33;70.25;99747.72;5090005;28;20028;-67
2021/12/04 13:51:14;;;;;;;22.75;13.57;;;;;;;4.32;70.46;99743.38;5090255;28;20499;-67
2021/12/04 13:53:42;;;;;;;20.02;12.75;;;;;;;4.27;70.64;99730.44;5090125;28;20043;-66
2021/12/04 13:56:14;;;;;;;22.10;13.35;;;;;;;4.29;70.81;99733.81;5090166;28;20016;-66
2021/12/04 13:58:54;;;;;;;26.33;13.43;;;;;;;4.29;71.20;99730.34;5090075;28;20032;-66
2021/12/04 14:01:20;;;;;;;27.02;13.27;;;;;;;4.28;71.52;99726.81;5089825;28;20082;-67
2021/12/04 14:03:47;;;;;;;25.25;14.10;;;;;;;4.28;71.57;99731.28;5089941;28;20028;-66
2021/12/04 14:06:16;;;;;;;27.13;14.50;;;;;;;4.26;71.82;99726.06;5090038;28;20138;-69
2021/12/04 14:08:43;;;;;;;23.10;14.60;;;;;;;4.26;72.23;99709.31;5090008;28;20019;-67
2021/12/04 14:11:09;;;;;;;25.85;14.63;;;;;;;4.24;72.71;99711.22;5089664;28;20648;-67
2021/12/04 14:13:38;;;;;;;22.92;13.88;;;;;;;4.25;72.95;99715.56;5075048;28;20027;-67
2021/12/04 14:16:05;;;;;;;23.52;14.18;;;;;;;4.21;73.58;99698.19;5093858;28;20062;-67
2021/12/04 14:18:31;;;;;;;22.08;13.85;;;;;;;4.19;73.97;99692.13;5075654;28;20575;-67
2021/12/04 14:21:00;;;;;;;23.55;13.98;;;;;;;4.22;74.13;99702.50;5093836;28;20074;-67
2021/12/04 14:23:31;;;;;;;26.30;14.75;;;;;;;4.17;74.86;99686.94;5093682;28;20529;-67
2021/12/04 14:26:02;;;;;;;22.83;14.30;;;;;;;4.17;75.20;99707.31;5075390;28;20048;-66
2021/12/04 14:28:35;;;;;;;25.05;15.13;;;;;;;4.16;75.50;99695.84;5075084;28;20044;-67
2021/12/04 14:31:00;;;;;;;27.73;15.82;;;;;;;4.03;76.17;99681.75;5073580;28;20028;-67
2021/12/04 14:33:26;;;;;;;26.02;15.57;;;;;;;4.11;76.30;99697.13;5093024;28;20446;-67
2021/12/04 14:35:54;;;;;;;24.02;15.68;;;;;;;4.05;76.69;99690.47;5093508;28;20073;-67
2021/12/04 14:38:22;;;;;;;29.58;16.70;;;;;;;4.08;77.43;99690.25;5075029;28;20048;-67